Time;durP1;ratioP1;P1;durP2;ratioP2;P2;SDS_P1;SDS_P2;PMS_P1;PMS_P2;Temp;Humidity;BMP_temperature;BMP_pressure;BME280_temperature;BME280_humidity;BME280_pressure;Samples;Min_cycle;Max_cycle;Signal;HPM_P1;HPM_P2
2023/08/25 00:01:51;;;;;;;0.05;0.05;;;;;;;23.46;56.13;97085.81;5122496;28;20035;-67
2023/08/25 00:04:19;;;;;;;0.10;0.10;;;;;;;23.52;56.20;97081.94;5109255;28;20138;-67
2023/08/25 00:06:47;;;;;;;0.10;0.10;;;;;;;23.51;55.93;97072.16;5121726;28;20040;-68
2023/08/25 00:09:16;;;;;;;0.03;0.03;;;;;;;23.55;55.71;97075.94;5119963;28;20051;-68
2023/08/25 00:11:44;;;;;;;0.00;0.00;;;;;;;23.57;56.39;97078.34;5120163;28;20528;-68
2023/08/25 00:14:11;;;;;;;0.00;0.00;;;;;;;23.52;56.81;97079.22;5119156;28;20445;-68
2023/08/25 00:16:39;;;;;;;0.05;0.05;;;;;;;23.47;56.46;97070.25;5107674;28;20131;-68
2023/08/25 00:19:07;;;;;;;0.00;0.00;;;;;;;23.45;56.91;97072.47;5106922;28;20140;-67
2023/08/25 00:21:34;;;;;;;0.15;0.15;;;;;;;23.47;56.86;97072.97;5120875;27;20049;-67
2023/08/25 00:24:02;;;;;;;0.03;0.03;;;;;;;23.36;57.35;97075.81;5126232;27;20047;-68
2023/08/25 00:26:33;;;;;;;0.08;0.03;;;;;;;23.18;58.09;97081.19;5119144;27;20043;-68
2023/08/25 00:29:00;;;;;;;0.03;0.03;;;;;;;23.19;57.88;97072.72;5111620;27;20460;-68
2023/08/25 00:31:28;;;;;;;0.00;0.00;;;;;;;23.27;57.62;97068.56;5100606;27;20058;-68
2023/08/25 00:33:57;;;;;;;0.03;0.03;;;;;;;23.29;57.36;97069.91;5099963;28;20067;-68
2023/08/25 00:36:25;;;;;;;0.00;0.00;;;;;;;23.28;58.05;97070.19;5086441;28;20105;-68
2023/08/25 00:38:55;;;;;;;0.10;0.10;;;;;;;23.17;58.72;97082.28;5107446;27;20096;-69
2023/08/25 00:41:22;;;;;;;0.03;0.03;;;;;;;23.21;58.55;97056.91;5101167;27;20044;-69
2023/08/25 00:43:54;;;;;;;0.10;0.10;;;;;;;23.15;59.18;97060.00;5110638;27;20503;-69
2023/08/25 00:46:22;;;;;;;0.10;0.10;;;;;;;23.13;58.67;97057.56;5126172;27;20469;-69
2023/08/25 00:48:50;;;;;;;0.03;0.03;;;;;;;23.00;59.35;97064.50;5093251;28;20044;-69
2023/08/25 00:51:18;;;;;;;0.10;0.10;;;;;;;22.99;60.06;97060.13;5096015;27;20426;-69
2023/08/25 00:53:46;;;;;;;0.08;0.08;;;;;;;23.04;59.69;97051.94;5110781;27;20396;-69
2023/08/25 00:56:16;;;;;;;0.10;0.10;;;;;;;22.97;60.35;97054.16;5093359;27;20051;-69
2023/08/25 00:58:44;;;;;;;0.03;0.03;;;;;;;22.86;60.62;97051.81;5121944;27;20066;-69
2023/08/25 01:01:14;;;;;;;0.00;0.00;;;;;;;22.81;61.21;97049.97;5113480;27;20046;-69
2023/08/25 01:03:42;;;;;;;0.00;0.00;;;;;;;22.82;61.16;97050.78;5102016;27;20121;-69
2023/08/25 01:06:09;;;;;;;0.10;0.10;;;;;;;22.85;60.76;97055.63;5119168;27;20123;-68
2023/08/25 01:08:38;;;;;;;0.10;0.10;;;;;;;22.74;61.13;97049.44;5110227;27;20039;-68
2023/08/25 01:11:16;;;;;;;0.00;0.00;;;;;;;22.99;60.77;97057.41;5111366;27;20064;-68
2023/08/25 01:13:49;;;;;;;0.10;0.10;;;;;;;22.87;61.40;97065.16;5083884;28;20039;-68
2023/08/25 01:16:21;;;;;;;0.00;0.00;;;;;;;22.99;60.88;97068.31;5119123;27;20071;-68
2023/08/25 01:18:48;;;;;;;0.13;0.13;;;;;;;22.82;61.48;97067.94;5110605;27;20101;-68
2023/08/25 01:21:16;;;;;;;0.03;0.03;;;;;;;22.70;62.29;97070.19;5112971;27;20044;-68
2023/08/25 01:23:47;;;;;;;0.03;0.03;;;;;;;22.61;62.41;97069.19;5093753;28;20044;-68
2023/08/25 01:26:17;;;;;;;0.10;0.10;;;;;;;22.56;62.76;97067.28;5102487;28;20046;-68
2023/08/25 01:28:50;;;;;;;0.10;0.10;;;;;;;22.51;62.43;97071.97;5104951;28;20039;-68
2023/08/25 01:31:19;;;;;;;0.10;0.10;;;;;;;22.57;62.76;97059.94;5092116;27;20458;-68
2023/08/25 01:33:47;;;;;;;0.03;0.03;;;;;;;22.66;62.35;97058.22;5112583;27;20047;-67
2023/08/25 01:36:19;;;;;;;0.03;0.03;;;;;;;22.73;61.91;97057.91;5117506;27;20043;-67
2023/08/25 01:38:50;;;;;;;0.10;0.10;;;;;;;22.85;61.75;97053.72;5119306;27;20040;-69
2023/08/25 01:41:23;;;;;;;0.10;0.10;;;;;;;22.92;61.77;97050.69;5110709;27;20047;-68
2023/08/25 01:43:52;;;;;;;0.10;0.10;;;;;;;22.79;62.33;97054.06;5125469;27;20074;-67
2023/08/25 01:46:20;;;;;;;0.10;0.10;;;;;;;22.56;62.60;97050.16;5124692;27;20058;-67
2023/08/25 01:48:51;;;;;;;0.17;0.17;;;;;;;22.48;63.24;97056.22;5108022;27;20055;-68
2023/08/25 01:51:19;;;;;;;0.03;0.03;;;;;;;22.32;63.93;97056.31;5102420;27;20568;-70
2023/08/25 01:53:51;;;;;;;0.00;0.00;;;;;;;22.29;63.94;97051.47;5114118;27;20051;-69
2023/08/25 01:56:24;;;;;;;0.03;0.03;;;;;;;22.15;64.70;97058.63;5110983;28;20055;-68
2023/08/25 01:58:52;;;;;;;0.03;0.03;;;;;;;22.05;65.30;97053.25;5097711;27;20512;-68
2023/08/25 02:01:20;;;;;;;0.10;0.10;;;;;;;22.00;65.86;97042.41;5108253;27;20043;-68
2023/08/25 02:03:47;;;;;;;0.10;0.03;;;;;;;21.98;65.85;97044.59;5128226;27;20268;-68
2023/08/25 02:06:15;;;;;;;0.17;0.17;;;;;;;21.97;65.66;97048.38;5094719;27;20379;-68
2023/08/25 02:08:45;;;;;;;0.10;0.10;;;;;;;21.95;65.98;97047.84;5103514;27;20407;-68
2023/08/25 02:11:13;;;;;;;0.03;0.03;;;;;;;21.98;65.93;97041.88;5119604;27;20118;-68
2023/08/25 02:13:44;;;;;;;0.10;0.08;;;;;;;21.99;66.55;97043.50;5119879;27;20093;-66
2023/08/25 02:16:12;;;;;;;0.00;0.00;;;;;;;22.03;66.01;97049.97;5117726;27;20482;-67
2023/08/25 02:18:40;;;;;;;0.03;0.03;;;;;;;22.03;66.21;97065.47;5102537;28;20039;-66
2023/08/25 02:21:08;;;;;;;0.10;0.10;;;;;;;22.05;66.04;97058.69;5085969;28;20047;-67
2023/08/25 02:23:36;;;;;;;0.13;0.13;;;;;;;22.06;65.91;97052.16;5092891;27;20047;-67
2023/08/25 02:26:04;;;;;;;0.10;0.10;;;;;;;22.06;66.29;97046.72;5089069;27;20136;-67
2023/08/25 02:28:32;;;;;;;0.10;0.10;;;;;;;22.07;66.75;97044.81;5104572;27;20121;-67
2023/08/25 02:31:02;;;;;;;0.10;0.10;;;;;;;22.16;65.86;97043.13;5103014;27;20498;-67
2023/08/25 02:33:34;;;;;;;0.13;0.13;;;;;;;22.05;67.08;97047.81;5106305;27;20837;-67
2023/08/25 02:36:02;;;;;;;0.10;0.10;;;;;;;22.00;67.36;97039.69;5087240;28;20151;-67
2023/08/25 02:38:29;;;;;;;0.10;0.10;;;;;;;21.98;67.02;97044.59;5098299;27;20447;-67
2023/08/25 02:40:57;;;;;;;0.03;0.03;;;;;;;21.88;67.62;97045.44;5106528;27;20137;-67
2023/08/25 02:43:25;;;;;;;0.10;0.10;;;;;;;21.80;67.91;97042.50;5100471;27;20071;-67
2023/08/25 02:45:52;;;;;;;0.03;0.03;;;;;;;21.75;68.63;97037.06;5116757;27;20123;-67
2023/08/25 02:48:21;;;;;;;0.10;0.10;;;;;;;21.70;68.81;97042.56;5096970;27;20050;-67
2023/08/25 02:50:50;;;;;;;0.20;0.20;;;;;;;21.70;68.65;97039.84;5095295;27;20075;-66
2023/08/25 02:53:17;;;;;;;0.08;0.08;;;;;;;21.63;69.04;97042.03;5103043;27;20092;-67
2023/08/25 02:55:46;;;;;;;0.17;0.15;;;;;;;21.59;69.38;97048.00;5092278;28;20146;-67
2023/08/25 02:58:14;;;;;;;0.00;0.00;;;;;;;21.52;69.74;97035.81;5102346;27;20571;-68
2023/08/25 03:00:42;;;;;;;0.13;0.13;;;;;;;21.50;70.14;97032.56;5097541;28;20053;-68
2023/08/25 03:03:09;;;;;;;0.05;0.05;;;;;;;21.44;70.27;97033.69;5097132;27;20127;-66
2023/08/25 03:05:39;;;;;;;0.10;0.10;;;;;;;21.45;69.98;97019.84;5094328;27;20058;-67
2023/08/25 03:08:12;;;;;;;0.10;0.10;;;;;;;21.30;70.88;97017.16;5095851;28;20052;-67
2023/08/25 03:10:43;;;;;;;0.00;0.00;;;;;;;21.22;70.97;97013.13;5084108;28;20097;-67
2023/08/25 03:13:11;;;;;;;0.10;0.10;;;;;;;21.23;71.07;97022.09;5097297;27;20538;-67
2023/08/25 03:15:39;;;;;;;0.13;0.13;;;;;;;21.27;71.19;97030.50;5094403;28;20044;-67
2023/08/25 03:18:08;;;;;;;0.03;0.03;;;;;;;21.20;71.14;97018.03;5094988;27;20047;-67
2023/08/25 03:20:36;;;;;;;0.03;0.03;;;;;;;21.16;71.37;97010.69;5093016;28;20044;-67
2023/08/25 03:23:05;;;;;;;0.10;0.10;;;;;;;21.17;71.65;97013.13;5096664;27;20044;-67
2023/08/25 03:25:38;;;;;;;0.10;0.10;;;;;;;21.11;71.94;97008.78;5082039;28;20044;-66
2023/08/25 03:28:06;;;;;;;0.10;0.10;;;;;;;21.08;71.99;97011.25;5098425;27;20098;-67
2023/08/25 03:30:33;;;;;;;0.10;0.10;;;;;;;21.05;72.11;97015.34;5107485;27;20094;-67
2023/08/25 03:33:03;;;;;;;0.10;0.10;;;;;;;21.07;72.08;97012.34;5095593;28;20143;-67
2023/08/25 03:35:33;;;;;;;0.10;0.10;;;;;;;21.02;72.66;97007.75;5092354;28;20126;-67
2023/08/25 03:38:01;;;;;;;0.00;0.00;;;;;;;20.96;73.00;97016.19;5087599;28;20040;-67
2023/08/25 03:40:30;;;;;;;0.10;0.10;;;;;;;20.88;73.44;97010.19;5121304;27;20118;-67
2023/08/25 03:42:58;;;;;;;0.20;0.20;;;;;;;20.84;73.44;97016.47;5096183;28;20044;-66
2023/08/25 03:45:26;;;;;;;0.20;0.20;;;;;;;20.86;73.64;97009.69;5088268;28;20126;-66
2023/08/25 03:47:53;;;;;;;0.10;0.10;;;;;;;20.84;73.82;97000.19;5104082;28;20090;-67
2023/08/25 03:50:23;;;;;;;0.20;0.20;;;;;;;20.74;74.05;97009.16;5099778;28;20035;-70
2023/08/25 03:52:52;;;;;;;0.20;0.20;;;;;;;20.76;73.72;97003.47;5092799;28;20085;-69
2023/08/25 03:55:21;;;;;;;0.10;0.10;;;;;;;20.74;73.95;97005.63;5105723;27;20043;-69
2023/08/25 03:57:52;;;;;;;0.10;0.10;;;;;;;20.72;73.82;97010.53;5123507;27;20046;-67
2023/08/25 04:00:21;;;;;;;0.20;0.20;;;;;;;20.72;74.20;97003.19;5124218;27;20031;-66
2023/08/25 04:02:49;;;;;;;0.13;0.13;;;;;;;20.67;74.39;97005.91;5127708;27;20534;-67
2023/08/25 04:05:16;;;;;;;0.10;0.10;;;;;;;20.64;74.29;97006.47;5102441;27;20051;-67
2023/08/25 04:07:45;;;;;;;0.20;0.20;;;;;;;20.68;74.42;97012.13;5104322;27;20043;-67
2023/08/25 04:10:14;;;;;;;0.10;0.10;;;;;;;20.66;74.55;97017.06;5102999;27;20035;-67
2023/08/25 04:12:41;;;;;;;0.15;0.13;;;;;;;20.65;74.77;97023.56;5102222;27;20071;-67
2023/08/25 04:15:11;;;;;;;0.10;0.10;;;;;;;20.58;75.00;97018.41;5105867;27;20083;-67
2023/08/25 04:17:38;;;;;;;0.08;0.08;;;;;;;20.59;75.21;97002.94;5102382;27;20050;-67
2023/08/25 04:20:07;;;;;;;0.08;0.08;;;;;;;20.62;75.08;97008.63;5122480;27;20039;-68
2023/08/25 04:22:37;;;;;;;0.10;0.10;;;;;;;20.71;74.70;97007.00;5102963;27;20070;-68
2023/08/25 04:25:05;;;;;;;0.20;0.20;;;;;;;20.74;74.61;97009.16;5124601;27;20503;-68
2023/08/25 04:27:33;;;;;;;0.10;0.10;;;;;;;20.67;74.98;97010.50;5104402;27;20039;-67
2023/08/25 04:30:01;;;;;;;0.13;0.13;;;;;;;20.66;75.09;97006.97;5103832;27;20394;-68
2023/08/25 04:32:30;;;;;;;0.13;0.13;;;;;;;20.71;74.59;97007.00;5105122;27;20052;-67
2023/08/25 04:34:58;;;;;;;0.10;0.10;;;;;;;20.71;74.69;97006.19;5104525;27;20051;-66
2023/08/25 04:37:27;;;;;;;0.10;0.10;;;;;;;20.71;74.35;97006.19;5104708;27;20495;-69
2023/08/25 04:39:55;;;;;;;0.13;0.13;;;;;;;20.71;74.60;97003.47;5102036;27;20050;-68
2023/08/25 04:42:26;;;;;;;0.13;0.13;;;;;;;20.75;74.43;96999.94;5103944;27;20379;-68
2023/08/25 04:44:54;;;;;;;0.20;0.20;;;;;;;20.65;74.96;97005.38;5099977;27;20071;-67
2023/08/25 04:47:23;;;;;;;0.20;0.20;;;;;;;20.54;75.50;96998.34;5105023;27;20498;-67
2023/08/25 04:49:55;;;;;;;0.03;0.03;;;;;;;20.63;75.19;97007.56;5103175;27;20065;-67
2023/08/25 04:52:23;;;;;;;0.10;0.10;;;;;;;20.64;75.21;96990.19;5122035;27;20067;-67
2023/08/25 04:54:51;;;;;;;0.10;0.10;;;;;;;20.61;75.28;96990.72;5122108;27;20035;-70
2023/08/25 04:57:19;;;;;;;0.10;0.10;;;;;;;20.61;75.47;96995.34;5105628;27;20096;-67
2023/08/25 04:59:47;;;;;;;0.10;0.10;;;;;;;20.58;75.71;96993.16;5103953;27;20047;-68
2023/08/25 05:02:17;;;;;;;0.05;0.05;;;;;;;20.60;75.62;96983.69;5103816;27;20039;-68
2023/08/25 05:04:45;;;;;;;0.13;0.13;;;;;;;20.60;75.38;96980.16;5105093;27;20043;-68
2023/08/25 05:07:14;;;;;;;0.17;0.17;;;;;;;20.64;75.76;96970.41;5100486;27;20085;-68
2023/08/25 05:09:43;;;;;;;0.20;0.10;;;;;;;20.72;75.10;96980.69;5104557;27;20134;-68
2023/08/25 05:12:12;;;;;;;0.13;0.13;;;;;;;20.84;75.11;96983.91;5104499;27;20046;-68
2023/08/25 05:14:43;;;;;;;0.10;0.10;;;;;;;20.82;75.13;96981.47;5104346;27;20401;-68
2023/08/25 05:17:11;;;;;;;0.15;0.13;;;;;;;20.83;74.85;96987.72;5101959;27;20048;-68
2023/08/25 05:19:39;;;;;;;0.13;0.13;;;;;;;20.82;75.25;96983.38;5104162;27;20134;-68
2023/08/25 05:22:07;;;;;;;0.10;0.10;;;;;;;20.87;74.53;96978.72;5104291;27;20521;-68
2023/08/25 05:24:37;;;;;;;0.10;0.10;;;;;;;20.87;74.87;96976.00;5121365;27;20039;-68
2023/08/25 05:27:05;;;;;;;0.13;0.13;;;;;;;20.85;74.58;96964.66;5123475;27;20047;-68
2023/08/25 05:29:33;;;;;;;0.03;0.03;;;;;;;20.84;74.81;96962.22;5096940;27;20101;-68
2023/08/25 05:32:11;;;;;;;0.20;0.20;;;;;;;20.87;74.65;96961.63;5101712;27;20516;-68
2023/08/25 05:34:50;;;;;;;0.20;0.20;;;;;;;20.84;74.74;96973.06;5104227;27;20765;-68
2023/08/25 05:37:18;;;;;;;0.15;0.15;;;;;;;20.79;74.99;96981.19;5099642;27;20046;-68
2023/08/25 05:39:47;;;;;;;0.10;0.10;;;;;;;20.74;75.41;96984.75;5120480;27;20067;-68
2023/08/25 05:42:15;;;;;;;0.10;0.10;;;;;;;20.72;75.60;96983.41;5102123;27;20089;-68
2023/08/25 05:44:43;;;;;;;0.13;0.13;;;;;;;20.68;75.46;96974.16;5116300;27;20085;-68
2023/08/25 05:47:11;;;;;;;0.13;0.13;;;;;;;20.67;75.73;96978.78;5121105;27;20040;-68
2023/08/25 05:49:38;;;;;;;0.22;0.10;;;;;;;20.66;75.85;96974.44;5103449;27;20105;-69
2023/08/25 05:52:06;;;;;;;0.40;0.10;;;;;;;20.70;75.57;96978.25;5101262;27;20129;-69
2023/08/25 05:54:34;;;;;;;0.10;0.10;;;;;;;20.77;75.39;96972.50;5102841;27;20466;-68
2023/08/25 05:57:04;;;;;;;0.20;0.20;;;;;;;20.82;75.39;96989.59;5101619;27;20091;-68
2023/08/25 05:59:32;;;;;;;0.08;0.03;;;;;;;20.90;74.76;96982.81;5121483;27;20039;-68
2023/08/25 06:02:00;;;;;;;0.05;0.05;;;;;;;20.99;74.49;96991.19;5122436;27;20035;-68
2023/08/25 06:04:28;;;;;;;0.32;0.13;;;;;;;20.99;74.43;96983.84;5120956;27;20061;-69
2023/08/25 06:06:55;;;;;;;0.13;0.13;;;;;;;20.99;74.45;96983.84;5117395;27;20066;-68
2023/08/25 06:09:23;;;;;;;0.10;0.10;;;;;;;21.00;74.89;96996.34;5122415;27;20039;-68
2023/08/25 06:11:52;;;;;;;0.05;0.05;;;;;;;21.04;74.50;97002.03;5120528;27;20043;-67
2023/08/25 06:14:21;;;;;;;0.30;0.10;;;;;;;21.03;74.62;97003.94;5122315;27;20040;-68
2023/08/25 06:16:50;;;;;;;0.10;0.10;;;;;;;21.11;74.34;97002.56;5117211;27;20039;-68
2023/08/25 06:19:17;;;;;;;0.10;0.10;;;;;;;21.13;74.31;97008.53;5119408;27;20040;-68
2023/08/25 06:21:45;;;;;;;0.10;0.10;;;;;;;21.16;73.99;97002.53;5121725;27;20513;-68
2023/08/25 06:24:13;;;;;;;0.10;0.10;;;;;;;21.10;74.33;97000.91;5114841;27;20035;-68
2023/08/25 06:26:42;;;;;;;0.00;0.00;;;;;;;21.08;74.74;97001.19;5120628;27;20042;-68
2023/08/25 06:29:11;;;;;;;0.10;0.10;;;;;;;21.14;74.52;97008.25;5122532;27;20035;-68
2023/08/25 06:31:40;;;;;;;0.20;0.20;;;;;;;21.20;74.11;97007.16;5120058;27;20387;-68
2023/08/25 06:34:08;;;;;;;0.20;0.10;;;;;;;21.31;74.00;97002.50;5121247;27;20452;-68
2023/08/25 06:36:36;;;;;;;0.20;0.20;;;;;;;21.42;74.14;96995.13;5119991;27;20063;-68
2023/08/25 06:39:03;;;;;;;0.13;0.13;;;;;;;21.58;73.08;96991.25;5115909;27;20046;-68
2023/08/25 06:41:31;;;;;;;0.10;0.10;;;;;;;21.62;72.87;96984.16;5119139;27;20057;-68
2023/08/25 06:44:07;;;;;;;0.10;0.10;;;;;;;21.71;72.73;96987.91;5102856;27;20040;-68
2023/08/25 06:46:35;;;;;;;0.10;0.10;;;;;;;21.80;72.11;96996.31;5119595;27;20035;-68
2023/08/25 06:49:08;;;;;;;0.20;0.20;;;;;;;21.93;71.08;96982.88;5118469;27;20513;-68
2023/08/25 06:51:36;;;;;;;0.10;0.10;;;;;;;21.95;70.84;96988.84;5119640;27;20505;-68
2023/08/25 06:54:03;;;;;;;0.10;0.10;;;;;;;21.90;71.36;96991.63;5117966;27;20074;-68
2023/08/25 06:56:34;;;;;;;0.10;0.10;;;;;;;22.02;70.88;96983.13;5114552;27;20136;-68
2023/08/25 06:59:02;;;;;;;0.13;0.13;;;;;;;22.16;70.67;96972.44;5119906;27;20035;-68
2023/08/25 07:01:30;;;;;;;0.10;0.10;;;;;;;22.17;70.42;96976.78;5118960;27;20039;-68
2023/08/25 07:03:58;;;;;;;0.13;0.13;;;;;;;22.28;70.11;96970.16;5118222;27;20047;-68
2023/08/25 07:06:28;;;;;;;0.03;0.03;;;;;;;22.32;69.62;96972.00;5120621;27;20054;-68
2023/08/25 07:08:55;;;;;;;0.13;0.13;;;;;;;22.41;68.97;96969.50;5116649;27;20053;-67
2023/08/25 07:11:24;;;;;;;0.10;0.10;;;;;;;22.42;69.53;96960.25;5118274;27;20071;-68
2023/08/25 07:13:51;;;;;;;0.10;0.10;;;;;;;22.48;68.92;96952.84;5119570;27;20048;-68
2023/08/25 07:16:19;;;;;;;0.20;0.20;;;;;;;22.45;69.06;96959.66;5120134;27;20047;-68
2023/08/25 07:18:47;;;;;;;0.10;0.10;;;;;;;22.46;68.86;96942.25;5117029;27;20043;-67
2023/08/25 07:21:14;;;;;;;0.13;0.13;;;;;;;22.51;69.00;96938.69;5115905;27;20123;-66
2023/08/25 07:23:44;;;;;;;0.03;0.03;;;;;;;22.59;68.40;96932.59;5119566;27;20067;-67
2023/08/25 07:26:12;;;;;;;0.10;0.10;;;;;;;22.75;68.04;96930.50;5119894;27;20561;-66
2023/08/25 07:28:40;;;;;;;0.10;0.10;;;;;;;22.89;67.92;96926.84;5118319;27;20050;-66
2023/08/25 07:31:07;;;;;;;0.00;0.00;;;;;;;23.02;67.40;96920.72;5120514;27;20398;-66
2023/08/25 07:33:35;;;;;;;0.13;0.13;;;;;;;23.14;66.59;96924.94;5117419;27;20527;-67
2023/08/25 07:36:03;;;;;;;0.10;0.10;;;;;;;23.24;66.84;96930.25;5118678;27;20126;-67
2023/08/25 07:38:31;;;;;;;0.10;0.10;;;;;;;23.30;66.23;96931.81;5117513;27;20049;-66
2023/08/25 07:41:00;;;;;;;0.00;0.00;;;;;;;23.45;66.14;96933.53;5120618;27;20067;-69
2023/08/25 07:43:28;;;;;;;0.30;0.17;;;;;;;23.44;65.77;96940.88;5099570;27;20047;-67
2023/08/25 07:45:56;;;;;;;0.10;0.10;;;;;;;23.62;65.44;96940.09;5124121;27;20035;-67
2023/08/25 07:48:24;;;;;;;0.30;0.05;;;;;;;23.73;64.74;96940.78;5119263;27;20521;-67
2023/08/25 07:50:52;;;;;;;0.03;0.03;;;;;;;23.84;65.08;96946.88;5125865;28;20039;-67
2023/08/25 07:53:19;;;;;;;0.03;0.03;;;;;;;23.89;64.62;96953.06;5120473;28;20052;-69
2023/08/25 07:55:47;;;;;;;0.10;0.10;;;;;;;23.90;64.69;96951.97;5120265;28;20040;-69
2023/08/25 07:58:16;;;;;;;0.00;0.00;;;;;;;24.00;64.30;96953.72;5118149;28;20031;-69
2023/08/25 08:00:44;;;;;;;0.03;0.03;;;;;;;24.08;64.21;96963.97;5116940;28;20513;-68
2023/08/25 08:03:13;;;;;;;0.15;0.03;;;;;;;24.28;63.29;96958.22;5115813;28;20060;-69
2023/08/25 08:05:41;;;;;;;0.17;0.17;;;;;;;24.48;62.91;96960.59;5118452;28;20039;-66
2023/08/25 08:08:09;;;;;;;0.13;0.13;;;;;;;24.59;62.30;96963.16;5118013;28;20567;-66
2023/08/25 08:10:37;;;;;;;0.00;0.00;;;;;;;24.61;61.42;96963.63;5119120;28;20849;-69
2023/08/25 08:13:06;;;;;;;0.10;0.10;;;;;;;24.59;61.24;96957.69;5119724;28;20044;-68
2023/08/25 08:15:35;;;;;;;0.08;0.08;;;;;;;24.75;61.78;96957.09;5116802;28;20047;-66
2023/08/25 08:18:03;;;;;;;0.10;0.10;;;;;;;24.78;60.65;96956.50;5118676;28;20066;-67
2023/08/25 08:20:33;;;;;;;0.20;0.17;;;;;;;24.83;60.69;96955.59;5119293;28;20502;-67
2023/08/25 08:23:01;;;;;;;0.00;0.00;;;;;;;24.88;60.58;96953.59;5119184;28;20036;-67
2023/08/25 08:25:30;;;;;;;0.10;0.10;;;;;;;25.03;59.81;96955.22;5117877;28;20035;-67
2023/08/25 08:27:57;;;;;;;0.10;0.10;;;;;;;25.14;59.98;96956.66;5119844;28;20456;-67
2023/08/25 08:30:25;;;;;;;0.10;0.10;;;;;;;25.17;59.64;96961.50;5116990;28;20045;-67
2023/08/25 08:32:54;;;;;;;0.10;0.10;;;;;;;25.23;58.59;96959.47;5114788;28;20040;-67
2023/08/25 08:35:22;;;;;;;0.10;0.10;;;;;;;25.19;59.14;96972.94;5116237;28;20118;-67
2023/08/25 08:37:50;;;;;;;0.10;0.10;;;;;;;25.33;58.97;96977.63;5116901;28;20043;-67
2023/08/25 08:40:20;;;;;;;0.10;0.10;;;;;;;25.51;58.88;96974.75;5119036;27;20105;-67
2023/08/25 08:42:48;;;;;;;0.10;0.10;;;;;;;25.64;58.45;96977.81;5123633;27;20122;-67
2023/08/25 08:45:17;;;;;;;0.10;0.10;;;;;;;25.75;57.63;96973.75;5122491;27;20040;-67
2023/08/25 08:47:45;;;;;;;0.03;0.03;;;;;;;25.75;57.70;96971.78;5122767;27;20553;-66
2023/08/25 08:50:15;;;;;;;0.05;0.05;;;;;;;25.82;56.69;96968.66;5122038;27;20520;-66
2023/08/25 08:52:42;;;;;;;0.10;0.10;;;;;;;25.70;57.35;96977.38;5123485;27;20097;-67
2023/08/25 08:55:10;;;;;;;0.13;0.10;;;;;;;25.69;57.54;96996.81;5123403;27;20034;-66
2023/08/25 08:57:38;;;;;;;0.00;0.00;;;;;;;25.76;56.60;97002.66;5122650;27;20126;-66
2023/08/25 09:00:10;;;;;;;0.00;0.00;;;;;;;25.70;56.52;97009.38;5121529;27;20066;-69
2023/08/25 09:02:38;;;;;;;0.10;0.10;;;;;;;25.80;55.91;97020.91;5122996;27;20047;-66
2023/08/25 09:05:06;;;;;;;0.10;0.10;;;;;;;26.03;55.52;97032.72;5119106;27;20556;-66
2023/08/25 09:07:37;;;;;;;0.00;0.00;;;;;;;26.26;54.86;97041.78;5121580;27;20050;-69
2023/08/25 09:10:05;;;;;;;0.03;0.03;;;;;;;26.23;53.85;97045.94;5123047;27;20449;-69
2023/08/25 09:12:34;;;;;;;0.10;0.10;;;;;;;26.35;53.86;97045.44;5123194;27;20035;-66
2023/08/25 09:15:03;;;;;;;0.20;0.10;;;;;;;26.48;53.39;97043.72;5118926;27;20043;-66
2023/08/25 09:17:32;;;;;;;0.10;0.10;;;;;;;26.39;52.35;97065.56;5118575;27;20112;-66
2023/08/25 09:20:05;;;;;;;0.10;0.10;;;;;;;26.25;52.17;97046.44;5122635;27;20088;-66
2023/08/25 09:22:35;;;;;;;0.10;0.10;;;;;;;26.22;52.84;97060.75;5122515;27;20036;-67
2023/08/25 09:25:03;;;;;;;0.00;0.00;;;;;;;26.06;53.50;97064.91;5121153;27;20490;-69
2023/08/25 09:27:31;;;;;;;0.25;0.20;;;;;;;25.96;53.66;97062.41;5121469;27;20035;-66
2023/08/25 09:30:00;;;;;;;0.20;0.20;;;;;;;25.99;53.88;97067.28;5121098;27;20047;-67
2023/08/25 09:32:28;;;;;;;0.00;0.00;;;;;;;25.92;54.14;97059.50;5121711;27;20096;-69
2023/08/25 09:34:56;;;;;;;0.03;0.03;;;;;;;25.88;54.21;97068.59;5121443;27;20074;-66
2023/08/25 09:37:41;;;;;;;0.00;0.00;;;;;;;25.86;54.25;97081.75;5117870;27;20092;-67
2023/08/25 09:40:12;;;;;;;0.10;0.10;;;;;;;25.70;53.26;97070.34;5120472;27;20422;-69
2023/08/25 09:42:40;;;;;;;0.10;0.10;;;;;;;25.52;52.89;97076.72;5118919;27;20053;-67
2023/08/25 09:45:09;;;;;;;0.03;0.03;;;;;;;25.48;53.31;97089.34;5121693;27;20118;-67
2023/08/25 09:47:37;;;;;;;0.10;0.10;;;;;;;25.19;53.50;97073.22;5121858;27;20039;-66
2023/08/25 09:50:05;;;;;;;0.00;0.00;;;;;;;25.14;54.32;97100.63;5122308;27;20047;-68
2023/08/25 09:52:35;;;;;;;0.10;0.10;;;;;;;25.12;55.00;97106.41;5119822;27;20043;-66
2023/08/25 09:55:05;;;;;;;0.13;0.13;;;;;;;24.88;55.30;97122.09;5121538;27;20128;-67
2023/08/25 09:57:33;;;;;;;0.05;0.05;;;;;;;24.59;55.92;97133.19;5119868;27;20520;-66
2023/08/25 10:00:04;;;;;;;0.10;0.10;;;;;;;24.47;56.83;97103.63;5121508;27;20051;-67
2023/08/25 10:02:38;;;;;;;0.00;0.00;;;;;;;24.26;57.10;97099.56;5119887;27;20123;-67
2023/08/25 10:05:09;;;;;;;0.08;0.05;;;;;;;24.24;57.69;97100.97;5116152;27;20118;-66
2023/08/25 10:07:36;;;;;;;0.10;0.10;;;;;;;24.34;57.66;97112.53;5120902;27;20055;-67
2023/08/25 10:10:07;;;;;;;0.10;0.10;;;;;;;24.37;57.12;97111.97;5120074;27;20050;-67
2023/08/25 10:12:37;;;;;;;0.00;0.00;;;;;;;24.29;57.89;97104.44;5118363;27;20067;-67
2023/08/25 10:15:07;;;;;;;0.03;0.03;;;;;;;24.26;57.85;97109.66;5121349;27;20043;-67
2023/08/25 10:17:36;;;;;;;0.17;0.10;;;;;;;24.28;57.41;97124.63;5120382;27;20462;-69
2023/08/25 10:20:09;;;;;;;0.13;0.13;;;;;;;24.07;60.45;97145.88;5122513;27;20496;-67
2023/08/25 10:22:37;;;;;;;0.10;0.10;;;;;;;23.76;63.25;97096.38;5121569;27;20062;-67
2023/08/25 10:25:08;;;;;;;0.10;0.10;;;;;;;23.87;63.27;97064.34;5123134;27;20039;-67
2023/08/25 10:27:38;;;;;;;0.10;0.10;;;;;;;23.93;65.54;97037.81;5124590;27;20035;-67
2023/08/25 10:30:07;;;;;;;0.05;0.05;;;;;;;23.96;65.13;97037.22;5119585;27;20039;-67
2023/08/25 10:32:51;;;;;;;0.10;0.10;;;;;;;23.80;65.86;97069.31;5123004;27;20054;-67
2023/08/25 10:35:38;;;;;;;0.03;0.03;;;;;;;23.58;66.32;97056.25;5122600;27;20050;-67
2023/08/25 10:38:10;;;;;;;0.10;0.10;;;;;;;23.63;68.36;97028.94;5122153;27;20047;-68
2023/08/25 10:40:43;;;;;;;0.10;0.10;;;;;;;23.52;66.14;97027.44;5115381;27;20039;-67
2023/08/25 10:43:10;;;;;;;0.10;0.10;;;;;;;23.35;67.73;97016.19;5121435;27;20538;-67
2023/08/25 10:45:38;;;;;;;0.13;0.13;;;;;;;23.36;69.71;97004.19;5126651;27;20455;-67
2023/08/25 10:48:07;;;;;;;0.05;0.03;;;;;;;23.49;69.83;97000.75;5122155;27;20047;-68
2023/08/25 10:50:34;;;;;;;0.10;0.10;;;;;;;23.58;70.37;96966.31;5120031;27;20038;-68
2023/08/25 10:53:02;;;;;;;0.10;0.10;;;;;;;23.54;73.28;96978.94;5120883;27;20039;-67
2023/08/25 10:55:32;;;;;;;0.00;0.00;;;;;;;23.41;70.52;96988.59;5121577;27;20043;-67
2023/08/25 10:58:05;;;;;;;0.10;0.10;;;;;;;23.27;69.65;97027.72;5121390;27;20405;-68
2023/08/25 11:00:34;;;;;;;0.10;0.10;;;;;;;23.25;69.34;97032.66;5119966;27;20043;-67
2023/08/25 11:03:02;;;;;;;0.10;0.10;;;;;;;23.12;69.28;97036.88;5122608;27;20057;-67
2023/08/25 11:05:41;;;;;;;0.10;0.10;;;;;;;23.09;71.11;97070.13;5121744;27;20066;-67
2023/08/25 11:08:26;;;;;;;0.22;0.22;;;;;;;22.93;70.71;97088.53;5121842;27;20084;-67
2023/08/25 11:11:11;;;;;;;0.20;0.20;;;;;;;22.82;71.05;97099.78;5119987;27;20407;-67
2023/08/25 11:13:41;;;;;;;0.17;0.17;;;;;;;22.84;72.94;97086.72;5120114;27;20043;-67
2023/08/25 11:16:10;;;;;;;0.13;0.13;;;;;;;22.92;70.58;97092.34;5102002;27;20039;-67
2023/08/25 11:18:40;;;;;;;0.13;0.13;;;;;;;22.96;71.04;97107.00;5118130;27;20067;-67
2023/08/25 11:21:08;;;;;;;0.13;0.13;;;;;;;22.92;71.33;97096.97;5119650;27;20035;-67
2023/08/25 11:23:39;;;;;;;0.10;0.10;;;;;;;22.99;71.12;97106.44;5119341;27;20044;-67
2023/08/25 11:26:08;;;;;;;0.10;0.10;;;;;;;23.08;71.19;97114.78;5119723;27;20486;-67
2023/08/25 11:28:36;;;;;;;0.20;0.20;;;;;;;23.18;70.56;97109.25;5119149;27;20171;-67
2023/08/25 11:31:07;;;;;;;0.20;0.20;;;;;;;23.18;70.09;97103.78;5119837;27;20529;-68
2023/08/25 11:33:35;;;;;;;0.10;0.10;;;;;;;23.24;69.96;97090.94;5114956;27;20075;-68
2023/08/25 11:36:04;;;;;;;0.00;0.00;;;;;;;23.32;69.91;97102.03;5120930;27;20063;-69
2023/08/25 11:38:31;;;;;;;2.50;0.10;;;;;;;23.25;69.52;97104.28;5121682;27;20058;-68
2023/08/25 11:40:59;;;;;;;0.00;0.00;;;;;;;23.32;70.88;97093.03;5119279;27;20139;-69
2023/08/25 11:43:32;;;;;;;0.20;0.13;;;;;;;23.40;69.09;97073.31;5118120;27;20046;-69